createdAt,value
2022-10-07T00:00:49.024Z,14.60
2022-10-07T00:03:34.036Z,10.40
2022-10-07T00:06:08.822Z,14.00
2022-10-07T00:08:42.675Z,12.60
2022-10-07T00:11:16.712Z,16.40
2022-10-07T00:13:49.800Z,16.10
2022-10-07T00:16:24.706Z,13.20
2022-10-07T00:21:30.836Z,13.30
2022-10-07T00:24:04.049Z,12.90
2022-10-07T00:26:38.528Z,12.40
2022-10-07T00:29:10.636Z,13.30
2022-10-07T00:31:42.951Z,10.50
2022-10-07T00:34:15.373Z,12.30
2022-10-07T00:36:51.106Z,11.60
2022-10-07T00:39:23.307Z,11.20
2022-10-07T00:41:55.959Z,13.80
2022-10-07T00:44:41.956Z,17.70
2022-10-07T00:47:24.417Z,28.20
2022-10-07T00:50:02.570Z,29.30
2022-10-07T00:52:38.287Z,37.80
2022-10-07T00:55:14.654Z,54.80
2022-10-07T00:57:48.510Z,55.20
2022-10-07T01:00:23.569Z,53.10
2022-10-07T01:02:55.721Z,59.10
2022-10-07T01:05:27.856Z,59.20
2022-10-07T01:08:01.255Z,49.70
2022-10-07T01:10:41.731Z,46.10
2022-10-07T01:13:19.859Z,46.10
2022-10-07T01:15:58.245Z,45.80
2022-10-07T01:18:38.363Z,42.40
2022-10-07T01:21:16.734Z,46.90
2022-10-07T01:24:04.806Z,46.70
2022-10-07T01:27:01.943Z,37.90
2022-10-07T01:29:39.574Z,27.70
2022-10-07T01:32:20.086Z,27.20
2022-10-07T01:34:55.207Z,20.70
2022-10-07T01:37:30.611Z,18.10
2022-10-07T01:40:07.587Z,16.30
2022-10-07T01:42:40.721Z,13.90
2022-10-07T01:45:16.155Z,11.60
2022-10-07T01:47:48.317Z,14.80
2022-10-07T01:50:23.611Z,13.60
2022-10-07T01:53:15.526Z,13.10
2022-10-07T01:56:13.076Z,14.20
2022-10-07T01:59:07.271Z,12.60
2022-10-07T02:01:48.370Z,15.70
2022-10-07T02:04:44.692Z,15.50
2022-10-07T02:07:33.609Z,13.50
2022-10-07T02:10:14.012Z,14.40
2022-10-07T02:12:53.459Z,13.90
2022-10-07T02:15:29.223Z,14.00
2022-10-07T02:18:07.487Z,13.60
2022-10-07T02:20:42.914Z,12.40
2022-10-07T02:23:17.469Z,13.30
2022-10-07T02:25:52.113Z,13.80
2022-10-07T02:28:26.190Z,15.00
2022-10-07T02:31:02.827Z,13.80
2022-10-07T02:33:38.559Z,14.60
2022-10-07T02:38:46.325Z,14.60
2022-10-07T02:41:32.466Z,12.30
2022-10-07T02:44:19.835Z,13.80
2022-10-07T02:46:56.031Z,11.30
2022-10-07T02:49:30.320Z,10.20
2022-10-07T02:52:08.168Z,11.90
2022-10-07T02:54:43.564Z,12.50
2022-10-07T02:57:19.161Z,10.00
2022-10-07T02:59:53.720Z,17.70
2022-10-07T03:02:30.846Z,17.60
2022-10-07T03:05:03.162Z,14.90
2022-10-07T03:07:35.446Z,12.10
2022-10-07T03:10:11.619Z,13.70
2022-10-07T03:15:14.556Z,18.40
2022-10-07T03:17:47.175Z,21.20
2022-10-07T03:20:19.644Z,23.70
2022-10-07T03:22:51.713Z,23.40
2022-10-07T03:25:24.656Z,22.20
2022-10-07T03:27:58.064Z,25.50
2022-10-07T03:30:30.329Z,28.30
2022-10-07T03:33:04.072Z,27.00
2022-10-07T03:35:36.363Z,25.50
2022-10-07T03:38:08.766Z,24.00
2022-10-07T03:40:41.454Z,17.30
2022-10-07T03:43:13.921Z,17.30
2022-10-07T03:45:52.678Z,16.40
2022-10-07T03:48:25.108Z,16.40
2022-10-07T03:50:57.776Z,14.80
2022-10-07T03:53:31.552Z,12.30
2022-10-07T03:56:05.425Z,14.40
2022-10-07T03:58:38.482Z,15.00
2022-10-07T04:01:15.227Z,19.80
2022-10-07T04:03:56.074Z,18.60
2022-10-07T04:06:30.321Z,21.60
2022-10-07T04:09:03.608Z,17.70
2022-10-07T04:11:35.760Z,21.30
2022-10-07T04:14:07.849Z,17.00
2022-10-07T04:16:40.133Z,19.20
2022-10-07T04:19:14.315Z,17.20
2022-10-07T04:21:47.041Z,13.80
2022-10-07T04:24:19.817Z,16.80
2022-10-07T04:26:52.584Z,14.20
2022-10-07T04:29:25.622Z,17.40
2022-10-07T04:31:58.983Z,17.30
2022-10-07T04:34:31.218Z,14.90
2022-10-07T04:37:03.333Z,20.80
2022-10-07T04:39:56.437Z,23.70
2022-10-07T04:42:45.907Z,24.40
2022-10-07T04:45:18.875Z,21.10
2022-10-07T04:47:51.018Z,22.70
2022-10-07T04:50:23.519Z,21.80
2022-10-07T04:52:57.375Z,22.50
2022-10-07T04:55:30.958Z,21.80
2022-10-07T04:58:03.071Z,22.40
2022-10-07T05:00:36.125Z,25.00
2022-10-07T05:03:08.692Z,22.70
2022-10-07T05:05:44.073Z,15.30
2022-10-07T05:08:19.492Z,21.00
2022-10-07T05:10:57.205Z,21.60
2022-10-07T05:13:30.640Z,22.10
2022-10-07T05:16:04.360Z,22.70
2022-10-07T05:18:39.518Z,17.40
2022-10-07T05:21:14.130Z,15.70
2022-10-07T05:23:49.558Z,29.30
2022-10-07T05:26:25.981Z,40.90
2022-10-07T05:29:01.501Z,48.60
2022-10-07T05:31:39.430Z,91.80
2022-10-07T05:34:12.020Z,22.20
2022-10-07T05:36:44.742Z,16.50
2022-10-07T05:39:17.254Z,22.90
2022-10-07T05:41:54.218Z,16.00
2022-10-07T05:44:32.266Z,18.20
2022-10-07T05:47:05.053Z,18.70
2022-10-07T05:49:37.593Z,30.20
2022-10-07T05:52:10.381Z,20.50
2022-10-07T05:54:42.814Z,21.50
2022-10-07T05:57:15.112Z,24.60
2022-10-07T05:59:47.277Z,20.70
2022-10-07T06:02:20.707Z,17.10
2022-10-07T06:04:54.049Z,19.60
2022-10-07T06:07:29.317Z,18.10
2022-10-07T06:10:20.874Z,18.70
2022-10-07T06:13:08.580Z,18.00
2022-10-07T06:15:42.578Z,16.00
2022-10-07T06:18:14.984Z,15.20
2022-10-07T06:20:57.392Z,17.90
2022-10-07T06:23:30.989Z,21.60
2022-10-07T06:26:05.256Z,15.40
2022-10-07T06:28:40.187Z,17.90
2022-10-07T06:31:15.101Z,18.30
2022-10-07T06:33:48.155Z,23.80
2022-10-07T06:36:21.466Z,25.90
2022-10-07T06:38:57.594Z,24.30
2022-10-07T06:41:33.588Z,23.00
2022-10-07T06:44:30.428Z,35.20
2022-10-07T06:47:04.188Z,31.40
2022-10-07T06:49:39.101Z,35.70
2022-10-07T06:52:12.438Z,18.30
2022-10-07T06:54:45.885Z,16.50
2022-10-07T06:57:43.850Z,14.20
2022-10-07T07:00:15.384Z,11.60
2022-10-07T07:02:48.561Z,12.30
2022-10-07T07:05:21.098Z,13.60
2022-10-07T07:07:55.847Z,14.50
2022-10-07T07:10:29.986Z,12.40
2022-10-07T07:13:02.744Z,13.00
2022-10-07T07:15:35.148Z,13.00
2022-10-07T07:18:12.767Z,17.20
2022-10-07T07:20:45.519Z,28.20
2022-10-07T07:23:17.874Z,23.70
2022-10-07T07:25:52.907Z,21.80
2022-10-07T07:28:25.348Z,12.70
2022-10-07T07:30:57.794Z,16.20
2022-10-07T07:33:30.225Z,17.00
2022-10-07T07:36:02.565Z,15.60
2022-10-07T07:38:34.837Z,12.30
2022-10-07T07:41:10.151Z,19.00
2022-10-07T07:43:42.308Z,17.30
2022-10-07T07:46:14.756Z,17.80
2022-10-07T07:48:47.918Z,10.80
2022-10-07T07:51:20.439Z,12.30
2022-10-07T07:53:53.014Z,10.80
2022-10-07T07:56:25.540Z,11.80
2022-10-07T07:58:58.081Z,9.50
2022-10-07T08:01:32.090Z,9.80
2022-10-07T08:04:05.930Z,8.00
2022-10-07T08:06:38.818Z,9.90
2022-10-07T08:09:12.912Z,8.50
2022-10-07T08:11:46.545Z,9.80
2022-10-07T08:14:22.941Z,8.60
2022-10-07T08:16:59.231Z,7.90
2022-10-07T08:19:32.037Z,6.90
2022-10-07T08:22:04.684Z,7.60
2022-10-07T08:24:37.823Z,10.60
2022-10-07T08:27:10.237Z,8.10
2022-10-07T08:29:42.624Z,8.00
2022-10-07T08:32:15.705Z,8.30
2022-10-07T08:34:47.978Z,6.60
2022-10-07T08:37:20.637Z,9.90
2022-10-07T08:39:52.890Z,12.90
2022-10-07T08:42:29.562Z,7.30
2022-10-07T08:45:02.443Z,9.70
2022-10-07T08:47:39.946Z,11.70
2022-10-07T08:50:19.865Z,9.30
2022-10-07T08:52:56.347Z,9.20
2022-10-07T08:55:36.596Z,6.10
2022-10-07T08:58:29.866Z,10.10
2022-10-07T09:01:12.846Z,6.50
2022-10-07T09:03:52.285Z,7.40
2022-10-07T09:06:31.888Z,7.90
2022-10-07T09:09:11.871Z,7.30
2022-10-07T09:11:48.264Z,6.70
2022-10-07T09:14:27.552Z,6.50
2022-10-07T09:17:08.000Z,7.10
2022-10-07T09:19:44.846Z,7.70
2022-10-07T09:22:23.117Z,9.40
2022-10-07T09:25:07.546Z,9.00
2022-10-07T09:27:43.257Z,8.90
2022-10-07T09:30:17.503Z,7.40
2022-10-07T09:32:52.003Z,5.40
2022-10-07T09:35:27.024Z,6.60
2022-10-07T09:38:01.946Z,5.10
2022-10-07T09:41:03.218Z,5.60
2022-10-07T09:43:36.546Z,8.00
2022-10-07T09:46:25.726Z,5.30
2022-10-07T09:48:59.399Z,7.70
2022-10-07T09:51:32.829Z,9.60
2022-10-07T09:54:07.394Z,8.40
2022-10-07T09:56:42.485Z,7.20
2022-10-07T09:59:23.678Z,4.70
2022-10-07T10:01:59.000Z,4.50
2022-10-07T10:04:35.638Z,4.60
2022-10-07T10:07:22.975Z,4.90
2022-10-07T10:09:57.630Z,4.10
2022-10-07T10:12:32.558Z,6.20
2022-10-07T10:15:17.533Z,5.90
2022-10-07T10:17:50.122Z,2.80
2022-10-07T10:20:36.183Z,3.80
2022-10-07T10:23:29.493Z,4.30
2022-10-07T10:26:33.341Z,5.80
2022-10-07T10:29:18.077Z,4.20
2022-10-07T10:32:16.893Z,5.30
2022-10-07T10:34:56.076Z,2.80
2022-10-07T10:37:39.812Z,3.80
2022-10-07T10:40:23.010Z,3.70
2022-10-07T10:43:06.203Z,5.70
2022-10-07T10:45:45.931Z,2.50
2022-10-07T10:48:30.600Z,3.20
2022-10-07T10:51:24.282Z,3.30
2022-10-07T10:54:09.391Z,4.50
2022-10-07T10:56:48.937Z,5.30
2022-10-07T10:59:42.845Z,6.10
2022-10-07T11:02:35.070Z,3.60
2022-10-07T11:05:14.457Z,5.70
2022-10-07T11:07:53.990Z,5.80
2022-10-07T11:10:31.768Z,5.40
2022-10-07T11:13:19.169Z,15.30
2022-10-07T11:15:57.171Z,3.60
2022-10-07T11:18:37.141Z,5.70
2022-10-07T11:21:15.912Z,4.90
2022-10-07T11:23:54.282Z,6.00
2022-10-07T11:26:34.716Z,6.50
2022-10-07T11:29:17.110Z,15.10
2022-10-07T11:31:57.126Z,14.50
2022-10-07T11:34:42.321Z,6.80
2022-10-07T11:37:20.818Z,7.70
2022-10-07T11:39:54.701Z,11.10
2022-10-07T11:42:30.443Z,32.50
2022-10-07T11:45:08.324Z,142.10
2022-10-07T11:47:44.804Z,14.00
2022-10-07T11:50:20.861Z,92.90
2022-10-07T11:52:56.411Z,14.60
2022-10-07T11:55:34.732Z,10.90
2022-10-07T11:58:09.043Z,14.70
2022-10-07T12:00:41.672Z,14.50
2022-10-07T12:03:44.616Z,8.10
2022-10-07T12:06:16.901Z,4.30
2022-10-07T12:08:49.521Z,4.80
2022-10-07T12:11:47.544Z,7.00
2022-10-07T12:14:59.488Z,10.60
2022-10-07T12:17:31.790Z,5.30
2022-10-07T12:20:45.261Z,6.60
2022-10-07T12:23:51.271Z,6.90
2022-10-07T12:26:54.261Z,5.70
2022-10-07T12:29:34.009Z,8.30
2022-10-07T12:32:26.581Z,46.80
2022-10-07T12:35:18.751Z,12.70
2022-10-07T12:38:03.058Z,17.50
2022-10-07T12:40:39.113Z,9.20
2022-10-07T12:43:26.307Z,5.70
2022-10-07T12:45:59.753Z,78.60
2022-10-07T12:48:38.739Z,39.20
2022-10-07T12:51:18.533Z,11.20
2022-10-07T12:53:53.111Z,5.20
2022-10-07T12:56:29.224Z,8.80
2022-10-07T12:59:43.524Z,6.10
2022-10-07T13:02:45.979Z,15.10
2022-10-07T13:06:15.924Z,12.80
2022-10-07T13:09:24.815Z,9.00
2022-10-07T13:12:28.101Z,9.60
2022-10-07T13:15:26.505Z,10.10
2022-10-07T13:18:07.387Z,4.10
2022-10-07T13:20:55.969Z,4.70
2022-10-07T13:23:31.790Z,5.10
2022-10-07T13:26:05.427Z,3.70
2022-10-07T13:28:48.670Z,6.00
2022-10-07T13:31:24.540Z,6.40
2022-10-07T13:34:19.196Z,8.30
2022-10-07T13:36:51.464Z,8.80
2022-10-07T13:39:25.834Z,6.90
2022-10-07T13:42:03.190Z,7.10
2022-10-07T13:44:36.362Z,7.60
2022-10-07T13:47:10.141Z,8.90
2022-10-07T13:49:48.797Z,3.70
2022-10-07T13:52:27.065Z,9.10
2022-10-07T13:54:59.466Z,11.20
2022-10-07T13:57:36.118Z,5.10
2022-10-07T14:00:12.691Z,7.20
2022-10-07T14:02:46.296Z,8.30
2022-10-07T14:05:24.024Z,9.60
2022-10-07T14:07:58.741Z,4.50
2022-10-07T14:13:07.378Z,4.50
2022-10-07T14:15:48.018Z,5.60
2022-10-07T14:18:20.456Z,7.40
2022-10-07T14:20:55.921Z,7.60
2022-10-07T14:23:31.316Z,23.40
2022-10-07T14:26:05.597Z,10.20
2022-10-07T14:28:39.790Z,7.40
2022-10-07T14:31:38.977Z,10.20
2022-10-07T14:34:36.953Z,6.60
2022-10-07T14:37:11.316Z,8.50
2022-10-07T14:39:47.779Z,8.10
2022-10-07T14:42:23.934Z,14.30
2022-10-07T14:44:57.616Z,7.20
2022-10-07T14:47:31.529Z,8.50
2022-10-07T14:50:03.793Z,6.80
2022-10-07T14:52:44.537Z,10.00
2022-10-07T14:55:20.818Z,7.50
2022-10-07T14:57:53.493Z,6.40
2022-10-07T15:00:29.463Z,7.30
2022-10-07T15:03:02.977Z,7.30
2022-10-07T15:05:35.346Z,4.50
2022-10-07T15:08:07.567Z,6.60
2022-10-07T15:10:42.365Z,7.90
2022-10-07T15:13:15.186Z,12.10
2022-10-07T15:15:49.409Z,13.30
2022-10-07T15:18:21.729Z,9.30
2022-10-07T15:20:59.205Z,11.20
2022-10-07T15:23:31.495Z,11.50
2022-10-07T15:26:03.869Z,13.30
2022-10-07T15:28:37.415Z,11.00
2022-10-07T15:31:10.999Z,14.80
2022-10-07T15:33:44.453Z,13.30
2022-10-07T15:36:17.862Z,16.30
2022-10-07T15:38:50.097Z,16.20
2022-10-07T15:41:34.970Z,13.90
2022-10-07T15:44:13.902Z,17.20
2022-10-07T15:46:47.687Z,15.00
2022-10-07T15:49:19.940Z,21.00
2022-10-07T15:51:52.174Z,19.00
2022-10-07T15:54:25.991Z,13.50
2022-10-07T15:56:58.344Z,20.10
2022-10-07T15:59:30.749Z,25.70
2022-10-07T16:02:03.901Z,19.70
2022-10-07T16:04:36.103Z,26.10
2022-10-07T16:07:08.497Z,17.40
2022-10-07T16:09:41.059Z,14.80
2022-10-07T16:12:13.565Z,13.20
2022-10-07T16:14:47.509Z,15.20
2022-10-07T16:17:19.886Z,13.70
2022-10-07T16:19:52.105Z,13.40
2022-10-07T16:22:24.337Z,14.80
2022-10-07T16:24:56.569Z,17.10
2022-10-07T16:27:49.605Z,20.60
2022-10-07T16:30:39.761Z,27.10
2022-10-07T16:33:11.952Z,34.20
2022-10-07T16:35:44.201Z,106.40
2022-10-07T16:38:16.658Z,122.80
2022-10-07T16:40:56.071Z,119.00
2022-10-07T16:43:29.654Z,93.90
2022-10-07T16:46:05.048Z,100.70
2022-10-07T16:48:41.280Z,186.50
2022-10-07T16:51:16.394Z,227.40
2022-10-07T16:53:50.678Z,224.30
2022-10-07T16:56:23.765Z,218.60
2022-10-07T16:58:59.840Z,181.10
2022-10-07T17:01:33.827Z,191.00
2022-10-07T17:04:07.178Z,219.70
2022-10-07T17:06:39.435Z,268.80
2022-10-07T17:09:11.607Z,207.40
2022-10-07T17:11:44.525Z,184.70
2022-10-07T17:14:18.743Z,151.90
2022-10-07T17:16:52.530Z,152.30
2022-10-07T17:19:26.554Z,138.30
2022-10-07T17:22:01.017Z,100.20
2022-10-07T17:24:33.238Z,99.50
2022-10-07T17:27:08.637Z,92.40
2022-10-07T17:29:40.863Z,75.30
2022-10-07T17:32:13.096Z,75.30
2022-10-07T17:34:45.628Z,57.20
2022-10-07T17:37:17.887Z,80.80
2022-10-07T17:39:50.085Z,88.40
2022-10-07T17:42:22.496Z,65.30
2022-10-07T17:44:55.232Z,51.00
2022-10-07T17:47:27.580Z,123.10
2022-10-07T17:49:59.894Z,98.80
2022-10-07T17:52:32.825Z,80.00
2022-10-07T17:55:06.250Z,71.40
2022-10-07T17:57:39.232Z,78.30
2022-10-07T18:00:13.417Z,80.50
2022-10-07T18:02:46.216Z,122.20
2022-10-07T18:05:19.760Z,105.70
2022-10-07T18:07:52.600Z,94.80
2022-10-07T18:10:24.886Z,104.10
2022-10-07T18:13:15.025Z,61.90
2022-10-07T18:15:57.042Z,75.00
2022-10-07T18:18:30.142Z,74.20
2022-10-07T18:21:06.966Z,48.00
2022-10-07T18:23:40.053Z,34.40
2022-10-07T18:26:13.844Z,245.50
2022-10-07T18:28:47.282Z,57.40
2022-10-07T18:31:21.305Z,42.10
2022-10-07T18:33:53.452Z,46.10
2022-10-07T18:36:25.833Z,69.60
2022-10-07T18:38:58.484Z,123.80
2022-10-07T18:41:30.814Z,78.30
2022-10-07T18:44:03.186Z,50.30
2022-10-07T18:46:35.734Z,48.70
2022-10-07T18:49:09.482Z,46.70
2022-10-07T18:51:42.143Z,36.00
2022-10-07T18:54:14.743Z,34.80
2022-10-07T18:56:49.746Z,40.90
2022-10-07T19:01:53.348Z,102.50
2022-10-07T19:04:25.822Z,483.10
2022-10-07T19:06:58.043Z,431.90
2022-10-07T19:09:30.382Z,229.60
2022-10-07T19:12:02.862Z,62.20
2022-10-07T19:14:35.133Z,29.20
2022-10-07T19:17:07.334Z,20.30
2022-10-07T19:19:41.363Z,15.50
2022-10-07T19:22:15.212Z,16.10
2022-10-07T19:25:05.215Z,17.80
2022-10-07T19:27:37.557Z,16.20
2022-10-07T19:30:12.087Z,26.50
2022-10-07T19:32:45.006Z,19.00
2022-10-07T19:35:17.401Z,14.90
2022-10-07T19:37:49.947Z,56.90
2022-10-07T19:40:22.374Z,17.70
2022-10-07T19:42:54.614Z,22.90
2022-10-07T19:45:26.994Z,20.40
2022-10-07T19:47:59.313Z,44.20
2022-10-07T19:50:31.634Z,30.20
2022-10-07T19:53:03.958Z,26.40
2022-10-07T19:55:36.826Z,25.10
2022-10-07T19:58:13.178Z,28.10
2022-10-07T20:00:45.456Z,27.80
2022-10-07T20:03:17.795Z,19.50
2022-10-07T20:05:50.018Z,17.70
2022-10-07T20:08:22.353Z,44.10
2022-10-07T20:10:54.821Z,23.50
2022-10-07T20:13:27.191Z,16.50
2022-10-07T20:16:06.282Z,19.10
2022-10-07T20:18:40.350Z,21.90
2022-10-07T20:21:16.160Z,32.40
2022-10-07T20:23:50.001Z,26.10
2022-10-07T20:26:24.759Z,27.20
2022-10-07T20:28:59.760Z,26.60
2022-10-07T20:31:34.933Z,20.50
2022-10-07T20:34:14.455Z,16.20
2022-10-07T20:36:47.269Z,23.70
2022-10-07T20:39:38.761Z,23.00
2022-10-07T20:42:27.430Z,20.20
2022-10-07T20:45:00.130Z,21.80
2022-10-07T20:47:35.174Z,32.80
2022-10-07T20:50:08.460Z,23.10
2022-10-07T20:52:40.889Z,16.60
2022-10-07T20:55:14.461Z,14.50
2022-10-07T20:57:47.224Z,21.30
2022-10-07T21:00:19.623Z,16.00
2022-10-07T21:02:52.029Z,20.30
2022-10-07T21:05:24.752Z,14.80
2022-10-07T21:07:57.052Z,17.90
2022-10-07T21:10:29.388Z,15.00
2022-10-07T21:13:01.968Z,14.50
2022-10-07T21:15:37.733Z,17.70
2022-10-07T21:18:10.149Z,15.60
2022-10-07T21:20:56.492Z,17.50
2022-10-07T21:23:29.953Z,16.50
2022-10-07T21:26:04.159Z,12.90
2022-10-07T21:28:37.806Z,18.10
2022-10-07T21:31:15.152Z,13.10
2022-10-07T21:33:49.571Z,13.60
2022-10-07T21:36:24.403Z,14.80
2022-10-07T21:39:00.496Z,15.90
2022-10-07T21:41:34.901Z,14.20
2022-10-07T21:44:10.480Z,13.60
2022-10-07T21:46:43.982Z,13.20
2022-10-07T21:49:17.576Z,15.60
2022-10-07T21:51:49.802Z,18.30
2022-10-07T21:54:22.139Z,16.60
2022-10-07T21:56:54.521Z,18.20
2022-10-07T21:59:26.980Z,13.40
2022-10-07T22:01:59.293Z,15.80
2022-10-07T22:04:31.559Z,16.60
2022-10-07T22:07:26.572Z,14.80
2022-10-07T22:09:59.118Z,16.00
2022-10-07T22:12:31.342Z,16.30
2022-10-07T22:15:03.618Z,14.40
2022-10-07T22:17:35.951Z,15.70
2022-10-07T22:20:09.720Z,16.50
2022-10-07T22:22:42.431Z,15.00
2022-10-07T22:25:14.712Z,18.00
2022-10-07T22:27:48.880Z,15.40
2022-10-07T22:30:21.319Z,14.60
2022-10-07T22:32:53.676Z,15.50
2022-10-07T22:35:30.376Z,14.80
2022-10-07T22:38:03.113Z,16.80
2022-10-07T22:40:39.674Z,14.50
2022-10-07T22:43:12.111Z,14.20
2022-10-07T22:45:44.534Z,15.30
2022-10-07T22:48:17.179Z,14.10
2022-10-07T22:50:49.476Z,14.60
2022-10-07T22:53:23.182Z,14.70
2022-10-07T22:55:55.489Z,16.20
2022-10-07T22:58:27.805Z,16.10
2022-10-07T23:01:05.378Z,17.10
2022-10-07T23:03:40.104Z,15.20
2022-10-07T23:06:13.520Z,15.70
2022-10-07T23:08:46.922Z,13.80
2022-10-07T23:11:23.433Z,14.40
2022-10-07T23:13:56.655Z,14.70
2022-10-07T23:16:32.516Z,14.90
2022-10-07T23:19:04.830Z,17.00
2022-10-07T23:21:37.944Z,20.70
2022-10-07T23:24:11.765Z,26.30
2022-10-07T23:26:46.616Z,226.90
2022-10-07T23:31:49.620Z,67.20
2022-10-07T23:34:22.013Z,138.70
2022-10-07T23:36:55.248Z,677.80
2022-10-07T23:39:27.689Z,74.40
2022-10-07T23:41:59.946Z,63.70
2022-10-07T23:44:32.232Z,146.30
2022-10-07T23:47:05.276Z,51.30
2022-10-07T23:49:37.607Z,55.20
2022-10-07T23:52:09.808Z,17.20
2022-10-07T23:54:42.189Z,31.60
2022-10-07T23:57:14.475Z,23.90
2022-10-07T23:59:46.820Z,20.70
